Saint Paul Island, AK

3:34 PM HADT on April 27, 2015 (GMT -0900)
Saint Paul Island | | Change Station
CLOSE
Current Station
Airport
Location: Saint Paul Island,
Elevation: 30 ft
Nearby Weather Stations

Elev 30 ft 57.16 °N, 170.22 °W | Updated 41 minutes ago

Light Rain
Light Rain Mist
38 °F
Feels Like 30 °F
N
13
Wind Variable Wind from SE

Today
High -- | Low -- °F
--% Chance of Precip.
Yesterday
High -- | Low -- °F
Precip. -- in
6:41 AM 9:56 PM
Waxing Gibbous, 69% visible
Pressure 29.56 in
Visibility 2.5 miles
Clouds Few 600 ft
Mostly Cloudy 2800 ft
Overcast 3600 ft
Windchill 30 °F
Dew Point 38 °F
Humidity 100%
Rainfall 0.04 in
Snow Depth Not available.
UV 2 out of 12
Pollen Not available.
Air Quality Not available.
Flu Activity Sporadic
METAR PASN 272353Z 13011KT 2 1/2SM -RA BR FEW006 BKN028 OVC036 03/03 A2955 RMK AO2 SLP008 P0003 60004 T00330033 10033 20022

More Conditions Fewer Conditions

Pressure 29.56 in
Visibility 2.5 miles
Clouds Few 600 ft
Mostly Cloudy 2800 ft
Overcast 3600 ft
Windchill 30 °F
Dew Point 38 °F
Humidity 100%
Rainfall 0.04 in
Snow Depth Not available.
UV 2 out of 12
Pollen Not available.
Air Quality Not available.
Flu Activity Sporadic
METAR PASN 272353Z 13011KT 2 1/2SM -RA BR FEW006 BKN028 OVC036 03/03 A2955 RMK AO2 SLP008 P0003 60004 T00330033 10033 20022

More Conditions Fewer Conditions

10-Day Weather Forecast

Almanac

Astronomy

Apr. 27, 2015 Rise Set
Actual Time
Civil Twilight
Nautical Twilight
Astronomical Twilight
Moon
Length of Visible Light
Length of Day
Tomorrow will be .
, % of the Moon is Illuminated

Today's Extremes

State Highs State Lows

Community

WunderPhotos

Upload Photos

1,817,496 photos uploaded!

WunderBlogs® & News

Nearby

Air Quality

  Air Quality AQ Index Pollutant
Not available.

Snow Depth

Station Depth Elevation

Earthquake Activity

City Distance Mag. Time & Date
Minimum magnitude displayed is 2.5.

Coastal Water Temperatures

Place Temperature

Stations

Nearby Weather Stations

Station Location Temp. Windchill Dew Point Humidity Wind Precip. Elev Updated Type